sensor_id;sensor_type;location;lat;lon;timestamp;pressure;altitude;pressure_sealevel;temperature;humidity
3796;BME280;1913;50.660;7.834;2023-07-22T00:00:41;150185.25;;;8.67;100.00
3796;BME280;1913;50.660;7.834;2023-07-22T00:03:06;150171.50;;;8.61;100.00
3796;BME280;1913;50.660;7.834;2023-07-22T00:05:32;150177.72;;;8.63;100.00
3796;BME280;1913;50.660;7.834;2023-07-22T00:07:57;150155.19;;;8.54;100.00
3796;BME280;1913;50.660;7.834;2023-07-22T00:10:22;150157.66;;;8.55;100.00
3796;BME280;1913;50.660;7.834;2023-07-22T00:12:48;150140.09;;;8.48;100.00
3796;BME280;1913;50.660;7.834;2023-07-22T00:15:13;150136.34;;;8.47;100.00
3796;BME280;1913;50.660;7.834;2023-07-22T00:17:40;150142.59;;;8.49;100.00
3796;BME280;1913;50.660;7.834;2023-07-22T00:20:06;150148.88;;;8.52;100.00
3796;BME280;1913;50.660;7.834;2023-07-22T00:22:35;150150.13;;;8.52;100.00
3796;BME280;1913;50.660;7.834;2023-07-22T00:25:01;150142.59;;;8.49;100.00
3796;BME280;1913;50.660;7.834;2023-07-22T00:27:26;150128.81;;;8.44;100.00
3796;BME280;1913;50.660;7.834;2023-07-22T00:29:52;150137.59;;;8.47;100.00
3796;BME280;1913;50.660;7.834;2023-07-22T00:32:17;150140.09;;;8.48;100.00
3796;BME280;1913;50.660;7.834;2023-07-22T00:34:43;150136.34;;;8.47;100.00
3796;BME280;1913;50.660;7.834;2023-07-22T00:37:08;150135.06;;;8.46;100.00
3796;BME280;1913;50.660;7.834;2023-07-22T00:39:33;150133.81;;;8.46;100.00
3796;BME280;1913;50.660;7.834;2023-07-22T00:41:59;150127.56;;;8.43;100.00
3796;BME280;1913;50.660;7.834;2023-07-22T00:44:25;150131.31;;;8.45;100.00
3796;BME280;1913;50.660;7.834;2023-07-22T00:46:53;150174.00;;;8.62;100.00
3796;BME280;1913;50.660;7.834;2023-07-22T00:49:19;150189.06;;;8.68;100.00
3796;BME280;1913;50.660;7.834;2023-07-22T00:51:44;150202.84;;;8.74;100.00
3796;BME280;1913;50.660;7.834;2023-07-22T00:54:10;150199.09;;;8.72;100.00
3796;BME280;1913;50.660;7.834;2023-07-22T00:56:36;150202.84;;;8.74;100.00
3796;BME280;1913;50.660;7.834;2023-07-22T00:59:02;150205.34;;;8.75;100.00
3796;BME280;1913;50.660;7.834;2023-07-22T01:01:27;150226.69;;;8.83;100.00
3796;BME280;1913;50.660;7.834;2023-07-22T01:03:53;150229.19;;;8.84;100.00
3796;BME280;1913;50.660;7.834;2023-07-22T01:06:19;150253.06;;;8.94;100.00
3796;BME280;1913;50.660;7.834;2023-07-22T01:08:45;150245.50;;;8.91;100.00
3796;BME280;1913;50.660;7.834;2023-07-22T01:11:12;150229.19;;;8.84;100.00
3796;BME280;1913;50.660;7.834;2023-07-22T01:13:38;150235.47;;;8.87;100.00
3796;BME280;1913;50.660;7.834;2023-07-22T01:16:05;150239.22;;;8.88;100.00
3796;BME280;1913;50.660;7.834;2023-07-22T01:18:32;150249.25;;;8.93;100.00
3796;BME280;1913;50.660;7.834;2023-07-22T01:20:58;150244.25;;;8.91;100.00
3796;BME280;1913;50.660;7.834;2023-07-22T01:23:23;150233.00;;;8.86;100.00
3796;BME280;1913;50.660;7.834;2023-07-22T01:25:49;150224.19;;;8.82;100.00
3796;BME280;1913;50.660;7.834;2023-07-22T01:28:14;150191.56;;;8.69;100.00
3796;BME280;1913;50.660;7.834;2023-07-22T01:30:39;150204.09;;;8.74;100.00
3796;BME280;1913;50.660;7.834;2023-07-22T01:33:05;150197.84;;;8.72;100.00
3796;BME280;1913;50.660;7.834;2023-07-22T01:35:30;150204.09;;;8.74;100.00
3796;BME280;1913;50.660;7.834;2023-07-22T01:37:56;150197.84;;;8.72;100.00
3796;BME280;1913;50.660;7.834;2023-07-22T01:40:21;150209.13;;;8.76;100.00
3796;BME280;1913;50.660;7.834;2023-07-22T01:42:48;150205.34;;;8.75;100.00
3796;BME280;1913;50.660;7.834;2023-07-22T01:45:14;150166.47;;;8.59;100.00
3796;BME280;1913;50.660;7.834;2023-07-22T01:47:39;150186.50;;;8.67;100.00
3796;BME280;1913;50.660;7.834;2023-07-22T01:50:06;150182.78;;;8.66;100.00
3796;BME280;1913;50.660;7.834;2023-07-22T01:52:32;150160.16;;;8.56;100.00
3796;BME280;1913;50.660;7.834;2023-07-22T01:54:57;150143.84;;;8.50;100.00
3796;BME280;1913;50.660;7.834;2023-07-22T01:57:23;150150.13;;;8.52;100.00
3796;BME280;1913;50.660;7.834;2023-07-22T01:59:48;150140.09;;;8.48;100.00
3796;BME280;1913;50.660;7.834;2023-07-22T02:02:14;150132.56;;;8.45;100.00
3796;BME280;1913;50.660;7.834;2023-07-22T02:04:39;150138.84;;;8.48;100.00
3796;BME280;1913;50.660;7.834;2023-07-22T02:07:04;150137.59;;;8.47;100.00
3796;BME280;1913;50.660;7.834;2023-07-22T02:09:32;150130.06;;;8.44;100.00
3796;BME280;1913;50.660;7.834;2023-07-22T02:11:58;150130.06;;;8.44;100.00
3796;BME280;1913;50.660;7.834;2023-07-22T02:14:23;150125.03;;;8.42;100.00
3796;BME280;1913;50.660;7.834;2023-07-22T02:16:49;150131.31;;;8.45;100.00
3796;BME280;1913;50.660;7.834;2023-07-22T02:19:14;150130.06;;;8.44;100.00
3796;BME280;1913;50.660;7.834;2023-07-22T02:21:40;150112.47;;;8.37;100.00
3796;BME280;1913;50.660;7.834;2023-07-22T02:24:07;150118.78;;;8.39;100.00
3796;BME280;1913;50.660;7.834;2023-07-22T02:26:33;150113.75;;;8.37;100.00
3796;BME280;1913;50.660;7.834;2023-07-22T02:28:58;150132.56;;;8.45;100.00
3796;BME280;1913;50.660;7.834;2023-07-22T02:31:24;150120.03;;;8.40;100.00
3796;BME280;1913;50.660;7.834;2023-07-22T02:33:50;150092.34;;;8.29;100.00
3796;BME280;1913;50.660;7.834;2023-07-22T02:36:15;150133.81;;;8.46;100.00
3796;BME280;1913;50.660;7.834;2023-07-22T02:38:41;150138.84;;;8.48;100.00
3796;BME280;1913;50.660;7.834;2023-07-22T02:41:07;150115.00;;;8.38;100.00
3796;BME280;1913;50.660;7.834;2023-07-22T02:43:34;150135.06;;;8.46;100.00
3796;BME280;1913;50.660;7.834;2023-07-22T02:46:04;150130.06;;;8.44;100.00
3796;BME280;1913;50.660;7.834;2023-07-22T02:48:32;150125.03;;;8.42;100.00
3796;BME280;1913;50.660;7.834;2023-07-22T02:51:08;150130.06;;;8.44;100.00
3796;BME280;1913;50.660;7.834;2023-07-22T02:53:34;150116.25;;;8.38;100.00
3796;BME280;1913;50.660;7.834;2023-07-22T02:56:06;150122.53;;;8.41;100.00
3796;BME280;1913;50.660;7.834;2023-07-22T02:58:32;150111.22;;;8.36;100.00
3796;BME280;1913;50.660;7.834;2023-07-22T03:00:58;150104.94;;;8.34;100.00
3796;BME280;1913;50.660;7.834;2023-07-22T03:03:24;150073.53;;;8.21;100.00
3796;BME280;1913;50.660;7.834;2023-07-22T03:05:53;150042.22;;;8.08;100.00
3796;BME280;1913;50.660;7.834;2023-07-22T03:08:19;150079.84;;;8.24;100.00
3796;BME280;1913;50.660;7.834;2023-07-22T03:10:44;150086.13;;;8.26;100.00
3796;BME280;1913;50.660;7.834;2023-07-22T03:13:17;150098.63;;;8.31;100.00
3796;BME280;1913;50.660;7.834;2023-07-22T03:15:42;150111.22;;;8.36;100.00
3796;BME280;1913;50.660;7.834;2023-07-22T03:18:08;150113.75;;;8.37;100.00
3796;BME280;1913;50.660;7.834;2023-07-22T03:20:36;150118.78;;;8.39;100.00
3796;BME280;1913;50.660;7.834;2023-07-22T03:23:02;150115.00;;;8.38;100.00
3796;BME280;1913;50.660;7.834;2023-07-22T03:25:27;150108.66;;;8.35;100.00
3796;BME280;1913;50.660;7.834;2023-07-22T03:27:53;150112.47;;;8.37;100.00
3796;BME280;1913;50.660;7.834;2023-07-22T03:30:21;150116.25;;;8.38;100.00
3796;BME280;1913;50.660;7.834;2023-07-22T03:32:47;150123.78;;;8.42;100.00
3796;BME280;1913;50.660;7.834;2023-07-22T03:35:14;150115.00;;;8.38;100.00
3796;BME280;1913;50.660;7.834;2023-07-22T03:37:40;150107.44;;;8.35;100.00
3796;BME280;1913;50.660;7.834;2023-07-22T03:40:06;150087.38;;;8.27;100.00
3796;BME280;1913;50.660;7.834;2023-07-22T03:42:52;150074.78;;;8.22;100.00
3796;BME280;1913;50.660;7.834;2023-07-22T03:45:19;150092.34;;;8.29;100.00
3796;BME280;1913;50.660;7.834;2023-07-22T03:47:46;150089.84;;;8.28;100.00
3796;BME280;1913;50.660;7.834;2023-07-22T03:50:12;150077.34;;;8.23;100.00
3796;BME280;1913;50.660;7.834;2023-07-22T03:52:37;150073.53;;;8.21;100.00
3796;BME280;1913;50.660;7.834;2023-07-22T03:55:03;150073.53;;;8.21;100.00
3796;BME280;1913;50.660;7.834;2023-07-22T03:57:30;150087.38;;;8.27;100.00
3796;BME280;1913;50.660;7.834;2023-07-22T03:59:56;150079.84;;;8.24;100.00
3796;BME280;1913;50.660;7.834;2023-07-22T04:02:22;150077.34;;;8.23;100.00
3796;BME280;1913;50.660;7.834;2023-07-22T04:04:48;150104.94;;;8.34;100.00
3796;BME280;1913;50.660;7.834;2023-07-22T04:07:14;150084.88;;;8.26;100.00
3796;BME280;1913;50.660;7.834;2023-07-22T04:09:40;150091.09;;;8.28;100.00
3796;BME280;1913;50.660;7.834;2023-07-22T04:12:07;150108.66;;;8.35;100.00
3796;BME280;1913;50.660;7.834;2023-07-22T04:14:32;150121.28;;;8.41;100.00
3796;BME280;1913;50.660;7.834;2023-07-22T04:16:58;150123.78;;;8.42;100.00
3796;BME280;1913;50.660;7.834;2023-07-22T04:19:23;150130.06;;;8.44;100.00
3796;BME280;1913;50.660;7.834;2023-07-22T04:21:48;150132.56;;;8.45;100.00
3796;BME280;1913;50.660;7.834;2023-07-22T04:24:14;150142.59;;;8.49;100.00
3796;BME280;1913;50.660;7.834;2023-07-22T04:26:42;150152.63;;;8.53;100.00
3796;BME280;1913;50.660;7.834;2023-07-22T04:29:07;150184.03;;;8.66;100.00
3796;BME280;1913;50.660;7.834;2023-07-22T04:31:33;150199.09;;;8.72;100.00
3796;BME280;1913;50.660;7.834;2023-07-22T04:33:59;150200.34;;;8.73;100.00
3796;BME280;1913;50.660;7.834;2023-07-22T04:36:24;150249.25;;;8.93;100.00
3796;BME280;1913;50.660;7.834;2023-07-22T04:38:50;150293.19;;;9.10;100.00
3796;BME280;1913;50.660;7.834;2023-07-22T04:41:16;150352.22;;;9.34;100.00
3796;BME280;1913;50.660;7.834;2023-07-22T04:43:41;150397.41;;;9.53;100.00
3796;BME280;1913;50.660;7.834;2023-07-22T04:46:06;150408.72;;;9.57;100.00
3796;BME280;1913;50.660;7.834;2023-07-22T04:48:33;150438.84;;;9.70;100.00
3796;BME280;1913;50.660;7.834;2023-07-22T04:50:59;150520.47;;;10.03;100.00
3796;BME280;1913;50.660;7.834;2023-07-22T04:53:24;150571.97;;;10.24;100.00
3796;BME280;1913;50.660;7.834;2023-07-22T04:55:49;150637.38;;;10.50;100.00
3796;BME280;1913;50.660;7.834;2023-07-22T04:58:15;150680.13;;;10.68;100.00
3796;BME280;1913;50.660;7.834;2023-07-22T05:00:40;150685.09;;;10.70;100.00
3796;BME280;1913;50.660;7.834;2023-07-22T05:03:07;150740.44;;;10.92;100.00
3796;BME280;1913;50.660;7.834;2023-07-22T05:05:33;150751.75;;;10.97;100.00
3796;BME280;1913;50.660;7.834;2023-07-22T05:07:58;150800.72;;;11.17;100.00
3796;BME280;1913;50.660;7.834;2023-07-22T05:10:24;150908.88;;;11.61;100.00
3796;BME280;1913;50.660;7.834;2023-07-22T05:12:49;151067.41;;;12.25;100.00
3796;BME280;1913;50.660;7.834;2023-07-22T05:15:14;151193.19;;;12.76;100.00
3796;BME280;1913;50.660;7.834;2023-07-22T05:17:40;151334.22;;;13.33;100.00
3796;BME280;1913;50.660;7.834;2023-07-22T05:20:06;151525.63;;;14.11;100.00
3796;BME280;1913;50.660;7.834;2023-07-22T05:22:35;151669.31;;;14.69;100.00
3796;BME280;1913;50.660;7.834;2023-07-22T05:25:00;151776.41;;;15.13;100.00
3796;BME280;1913;50.660;7.834;2023-07-22T05:27:26;151881.03;;;15.55;100.00
3796;BME280;1913;50.660;7.834;2023-07-22T05:29:51;151956.72;;;15.86;100.00
3796;BME280;1913;50.660;7.834;2023-07-22T05:32:16;152074.03;;;16.33;100.00
3796;BME280;1913;50.660;7.834;2023-07-22T05:34:42;152137.09;;;16.59;100.00
3796;BME280;1913;50.660;7.834;2023-07-22T05:37:07;152236.78;;;16.99;100.00
3796;BME280;1913;50.660;7.834;2023-07-22T05:39:32;152355.44;;;17.47;100.00
3796;BME280;1913;50.660;7.834;2023-07-22T05:41:58;152456.47;;;17.88;100.00
3796;BME280;1913;50.660;7.834;2023-07-22T05:44:23;152635.75;;;18.60;100.00
3796;BME280;1913;50.660;7.834;2023-07-22T05:46:48;152774.78;;;19.17;100.00
3796;BME280;1913;50.660;7.834;2023-07-22T05:49:15;152805.13;;;19.29;100.00
3796;BME280;1913;50.660;7.834;2023-07-22T05:51:40;152963.16;;;19.93;100.00
3796;BME280;1913;50.660;7.834;2023-07-22T05:54:06;153037.72;;;20.23;100.00
3796;BME280;1913;50.660;7.834;2023-07-22T05:56:31;153126.28;;;20.59;100.00
3796;BME280;1913;50.660;7.834;2023-07-22T05:58:56;153199.59;;;20.88;100.00
3796;BME280;1913;50.660;7.834;2023-07-22T06:01:23;153288.19;;;21.24;95.33
3796;BME280;1913;50.660;7.834;2023-07-22T06:03:48;153143.97;;;20.66;78.81
3796;BME280;1913;50.660;7.834;2023-07-22T06:06:14;153175.63;;;20.78;90.01
3796;BME280;1913;50.660;7.834;2023-07-22T06:08:39;153080.72;;;20.40;73.46
3796;BME280;1913;50.660;7.834;2023-07-22T06:11:04;153238.84;;;21.04;82.50
3796;BME280;1913;50.660;7.834;2023-07-22T06:13:30;153095.91;;;20.46;78.04
3796;BME280;1913;50.660;7.834;2023-07-22T06:15:56;152984.63;;;20.01;76.65
3796;BME280;1913;50.660;7.834;2023-07-22T06:18:21;152941.66;;;19.84;81.25
3796;BME280;1913;50.660;7.834;2023-07-22T06:20:46;152837.94;;;19.42;84.07
3796;BME280;1913;50.660;7.834;2023-07-22T06:23:12;152865.78;;;19.53;86.59
3796;BME280;1913;50.660;7.834;2023-07-22T06:25:37;152832.91;;;19.40;79.28
3796;BME280;1913;50.660;7.834;2023-07-22T06:28:03;152956.81;;;19.90;78.39
3796;BME280;1913;50.660;7.834;2023-07-22T06:30:28;152944.16;;;19.85;77.64
3796;BME280;1913;50.660;7.834;2023-07-22T06:32:54;152920.19;;;19.75;79.69
3796;BME280;1913;50.660;7.834;2023-07-22T06:35:19;152999.81;;;20.07;70.28
3796;BME280;1913;50.660;7.834;2023-07-22T06:37:45;152996.00;;;20.06;77.90
3796;BME280;1913;50.660;7.834;2023-07-22T06:40:10;153047.81;;;20.27;73.53
3796;BME280;1913;50.660;7.834;2023-07-22T06:42:36;153074.38;;;20.38;67.57
3796;BME280;1913;50.660;7.834;2023-07-22T06:45:02;153054.16;;;20.29;60.23
3796;BME280;1913;50.660;7.834;2023-07-22T06:47:28;153127.53;;;20.59;62.23
3796;BME280;1913;50.660;7.834;2023-07-22T06:49:53;152960.59;;;19.92;66.11
3796;BME280;1913;50.660;7.834;2023-07-22T06:52:18;152874.63;;;19.57;78.05
3796;BME280;1913;50.660;7.834;2023-07-22T06:54:44;152978.28;;;19.99;59.79
3796;BME280;1913;50.660;7.834;2023-07-22T06:57:09;152882.19;;;19.60;66.96
3796;BME280;1913;50.660;7.834;2023-07-22T06:59:35;152835.44;;;19.41;67.09
3796;BME280;1913;50.660;7.834;2023-07-22T07:02:01;152851.88;;;19.48;64.73
3796;BME280;1913;50.660;7.834;2023-07-22T07:04:26;152883.47;;;19.60;66.35
3796;BME280;1913;50.660;7.834;2023-07-22T07:06:51;152884.75;;;19.61;63.65
3796;BME280;1913;50.660;7.834;2023-07-22T07:09:17;152906.25;;;19.70;68.03
3796;BME280;1913;50.660;7.834;2023-07-22T07:11:42;152980.84;;;20.00;62.67
3796;BME280;1913;50.660;7.834;2023-07-22T07:14:08;153046.56;;;20.26;63.08
3796;BME280;1913;50.660;7.834;2023-07-22T07:16:33;153056.69;;;20.30;67.82
3796;BME280;1913;50.660;7.834;2023-07-22T07:19:00;153098.41;;;20.47;68.39
3796;BME280;1913;50.660;7.834;2023-07-22T07:21:27;153103.50;;;20.49;55.99
3796;BME280;1913;50.660;7.834;2023-07-22T07:23:53;153026.34;;;20.18;56.62
3796;BME280;1913;50.660;7.834;2023-07-22T07:26:19;153083.22;;;20.41;58.84
3796;BME280;1913;50.660;7.834;2023-07-22T07:28:46;153138.94;;;20.64;55.59
3796;BME280;1913;50.660;7.834;2023-07-22T07:31:11;153185.72;;;20.83;59.43
3796;BME280;1913;50.660;7.834;2023-07-22T07:33:37;153221.13;;;20.97;56.67
3796;BME280;1913;50.660;7.834;2023-07-22T07:36:03;153217.38;;;20.95;50.79
3796;BME280;1913;50.660;7.834;2023-07-22T07:38:29;153208.50;;;20.92;50.52
3796;BME280;1913;50.660;7.834;2023-07-22T07:41:00;153161.69;;;20.73;49.99
3796;BME280;1913;50.660;7.834;2023-07-22T07:43:26;153211.03;;;20.93;51.55
3796;BME280;1913;50.660;7.834;2023-07-22T07:46:12;153003.59;;;20.09;51.25
3796;BME280;1913;50.660;7.834;2023-07-22T07:48:38;152931.53;;;19.80;54.64
3796;BME280;1913;50.660;7.834;2023-07-22T07:51:03;152992.22;;;20.04;54.21
3796;BME280;1913;50.660;7.834;2023-07-22T07:53:28;153047.81;;;20.27;53.59
3796;BME280;1913;50.660;7.834;2023-07-22T07:55:54;153078.19;;;20.39;55.78
3796;BME280;1913;50.660;7.834;2023-07-22T07:58:19;153180.66;;;20.80;52.80
3796;BME280;1913;50.660;7.834;2023-07-22T08:00:44;153045.31;;;20.26;51.72
3796;BME280;1913;50.660;7.834;2023-07-22T08:03:10;153132.63;;;20.61;51.63
3796;BME280;1913;50.660;7.834;2023-07-22T08:05:35;153216.06;;;20.95;50.70
3796;BME280;1913;50.660;7.834;2023-07-22T08:08:01;153146.50;;;20.67;49.31
3796;BME280;1913;50.660;7.834;2023-07-22T08:10:26;153143.97;;;20.66;51.06
3796;BME280;1913;50.660;7.834;2023-07-22T08:12:51;153248.97;;;21.08;51.86
3796;BME280;1913;50.660;7.834;2023-07-22T08:15:17;153336.31;;;21.43;52.33
3796;BME280;1913;50.660;7.834;2023-07-22T08:17:42;153399.56;;;21.69;50.35
3796;BME280;1913;50.660;7.834;2023-07-22T08:20:08;153443.84;;;21.87;48.95
3796;BME280;1913;50.660;7.834;2023-07-22T08:22:34;153500.81;;;22.10;45.71
3796;BME280;1913;50.660;7.834;2023-07-22T08:24:59;153416.00;;;21.75;48.71
3796;BME280;1913;50.660;7.834;2023-07-22T08:27:25;153367.94;;;21.56;47.86
3796;BME280;1913;50.660;7.834;2023-07-22T08:29:50;153471.69;;;21.98;49.02
3796;BME280;1913;50.660;7.834;2023-07-22T08:32:15;153436.25;;;21.84;47.42
3796;BME280;1913;50.660;7.834;2023-07-22T08:34:41;153569.19;;;22.37;47.87
3796;BME280;1913;50.660;7.834;2023-07-22T08:37:06;153484.38;;;22.03;46.77
3796;BME280;1913;50.660;7.834;2023-07-22T08:39:32;153275.53;;;21.19;48.01
3796;BME280;1913;50.660;7.834;2023-07-22T08:41:58;153312.25;;;21.34;51.17
3796;BME280;1913;50.660;7.834;2023-07-22T08:44:30;153217.38;;;20.95;50.33
3796;BME280;1913;50.660;7.834;2023-07-22T08:46:59;153185.72;;;20.83;49.62
3796;BME280;1913;50.660;7.834;2023-07-22T08:49:26;153117.44;;;20.55;53.74
3796;BME280;1913;50.660;7.834;2023-07-22T08:51:54;153156.66;;;20.71;55.83
3796;BME280;1913;50.660;7.834;2023-07-22T08:54:21;152960.59;;;19.92;58.52
3796;BME280;1913;50.660;7.834;2023-07-22T08:56:49;152908.78;;;19.71;62.59
3796;BME280;1913;50.660;7.834;2023-07-22T08:59:19;152891.06;;;19.64;68.19
3796;BME280;1913;50.660;7.834;2023-07-22T09:01:47;153036.47;;;20.22;66.89
3796;BME280;1913;50.660;7.834;2023-07-22T09:04:13;153188.25;;;20.84;62.40
3796;BME280;1913;50.660;7.834;2023-07-22T09:06:39;153176.88;;;20.79;60.36
3796;BME280;1913;50.660;7.834;2023-07-22T09:09:07;153252.78;;;21.10;62.47
3796;BME280;1913;50.660;7.834;2023-07-22T09:11:34;153168.03;;;20.75;61.10
3796;BME280;1913;50.660;7.834;2023-07-22T09:14:02;153323.66;;;21.38;64.36
3796;BME280;1913;50.660;7.834;2023-07-22T09:16:28;153317.34;;;21.36;54.72
3796;BME280;1913;50.660;7.834;2023-07-22T09:18:56;153304.59;;;21.31;56.51
3796;BME280;1913;50.660;7.834;2023-07-22T09:21:22;153412.22;;;21.74;53.98
3796;BME280;1913;50.660;7.834;2023-07-22T09:23:48;153386.91;;;21.64;48.53
3796;BME280;1913;50.660;7.834;2023-07-22T09:26:17;153378.06;;;21.60;51.13
3796;BME280;1913;50.660;7.834;2023-07-22T09:28:56;153398.28;;;21.68;49.95
3796;BME280;1913;50.660;7.834;2023-07-22T09:31:25;153403.38;;;21.70;46.84
3796;BME280;1913;50.660;7.834;2023-07-22T09:33:52;153347.66;;;21.48;45.38
3796;BME280;1913;50.660;7.834;2023-07-22T09:36:20;153383.09;;;21.62;46.18
3796;BME280;1913;50.660;7.834;2023-07-22T09:38:59;153566.66;;;22.36;45.27
3796;BME280;1913;50.660;7.834;2023-07-22T09:41:29;153766.78;;;23.17;41.30
3796;BME280;1913;50.660;7.834;2023-07-22T09:43:55;153798.41;;;23.30;39.85
3796;BME280;1913;50.660;7.834;2023-07-22T09:46:21;153704.72;;;22.92;38.37
3796;BME280;1913;50.660;7.834;2023-07-22T09:48:46;153641.38;;;22.66;35.63
3796;BME280;1913;50.660;7.834;2023-07-22T09:51:13;153603.38;;;22.51;38.88
3796;BME280;1913;50.660;7.834;2023-07-22T09:53:44;153450.19;;;21.89;40.78
3796;BME280;1913;50.660;7.834;2023-07-22T09:56:09;153410.94;;;21.73;40.69
3796;BME280;1913;50.660;7.834;2023-07-22T09:58:35;153500.81;;;22.10;40.44
3796;BME280;1913;50.660;7.834;2023-07-22T10:01:01;153598.34;;;22.49;39.39
3796;BME280;1913;50.660;7.834;2023-07-22T10:03:31;153554.03;;;22.31;38.93
3796;BME280;1913;50.660;7.834;2023-07-22T10:05:59;153581.88;;;22.42;38.68
3796;BME280;1913;50.660;7.834;2023-07-22T10:08:26;153730.06;;;23.02;39.36
3796;BME280;1913;50.660;7.834;2023-07-22T10:10:57;153583.13;;;22.43;41.46
3796;BME280;1913;50.660;7.834;2023-07-22T10:13:24;153661.63;;;22.75;43.09
3796;BME280;1913;50.660;7.834;2023-07-22T10:15:50;153551.47;;;22.30;44.65
3796;BME280;1913;50.660;7.834;2023-07-22T10:18:15;153675.53;;;22.80;44.97
3796;BME280;1913;50.660;7.834;2023-07-22T10:20:43;153781.97;;;23.23;44.61
3796;BME280;1913;50.660;7.834;2023-07-22T10:23:09;153749.03;;;23.10;42.67
3796;BME280;1913;50.660;7.834;2023-07-22T10:25:37;153697.06;;;22.89;44.89
3796;BME280;1913;50.660;7.834;2023-07-22T10:28:04;153560.31;;;22.34;47.78
3796;BME280;1913;50.660;7.834;2023-07-22T10:30:31;153646.41;;;22.68;45.76
3796;BME280;1913;50.660;7.834;2023-07-22T10:32:57;153612.22;;;22.55;41.51
3796;BME280;1913;50.660;7.834;2023-07-22T10:37:49;153659.09;;;22.74;42.09
3796;BME280;1913;50.660;7.834;2023-07-22T10:40:18;153556.53;;;22.32;41.92
3796;BME280;1913;50.660;7.834;2023-07-22T10:42:57;153540.09;;;22.26;40.76
3796;BME280;1913;50.660;7.834;2023-07-22T10:45:33;153678.09;;;22.81;40.71
3796;BME280;1913;50.660;7.834;2023-07-22T10:48:09;153771.81;;;23.19;42.19
3796;BME280;1913;50.660;7.834;2023-07-22T10:53:09;153984.66;;;24.05;37.54
3796;BME280;1913;50.660;7.834;2023-07-22T10:58:33;153921.31;;;23.79;35.72
3796;BME280;1913;50.660;7.834;2023-07-22T11:06:33;153817.44;;;23.37;38.41
3796;BME280;1913;50.660;7.834;2023-07-22T11:08:58;153766.78;;;23.17;36.96
3796;BME280;1913;50.660;7.834;2023-07-22T11:11:44;153784.50;;;23.24;39.33
3796;BME280;1913;50.660;7.834;2023-07-22T11:16:38;153513.50;;;22.15;38.69
3796;BME280;1913;50.660;7.834;2023-07-22T11:19:03;153602.09;;;22.51;39.71
3796;BME280;1913;50.660;7.834;2023-07-22T11:21:29;153681.88;;;22.83;38.39
3796;BME280;1913;50.660;7.834;2023-07-22T11:23:54;153752.81;;;23.11;38.53
3796;BME280;1913;50.660;7.834;2023-07-22T11:26:19;153752.81;;;23.11;37.52
3796;BME280;1913;50.660;7.834;2023-07-22T11:28:46;153809.84;;;23.34;36.94
3796;BME280;1913;50.660;7.834;2023-07-22T11:31:11;153732.56;;;23.03;37.26
3796;BME280;1913;50.660;7.834;2023-07-22T11:33:40;153784.50;;;23.24;37.40
3796;BME280;1913;50.660;7.834;2023-07-22T11:36:06;153830.09;;;23.42;37.91
3796;BME280;1913;50.660;7.834;2023-07-22T11:38:32;154008.75;;;24.14;38.06
3796;BME280;1913;50.660;7.834;2023-07-22T11:40:58;154015.09;;;24.17;37.95
3796;BME280;1913;50.660;7.834;2023-07-22T11:43:23;153996.09;;;24.09;37.30
3796;BME280;1913;50.660;7.834;2023-07-22T11:45:49;153982.16;;;24.04;34.80
3796;BME280;1913;50.660;7.834;2023-07-22T11:48:14;153861.78;;;23.55;35.62
3796;BME280;1913;50.660;7.834;2023-07-22T11:50:40;153702.13;;;22.91;36.19
3796;BME280;1913;50.660;7.834;2023-07-22T11:53:06;153660.38;;;22.74;37.06
3796;BME280;1913;50.660;7.834;2023-07-22T11:55:34;153576.78;;;22.40;37.17
3796;BME280;1913;50.660;7.834;2023-07-22T11:58:01;153522.38;;;22.18;38.71
3796;BME280;1913;50.660;7.834;2023-07-22T12:00:26;153647.69;;;22.69;38.33
3796;BME280;1913;50.660;7.834;2023-07-22T12:02:51;153785.75;;;23.25;35.01
3796;BME280;1913;50.660;7.834;2023-07-22T12:05:22;153742.69;;;23.07;35.51
3796;BME280;1913;50.660;7.834;2023-07-22T12:07:47;153876.94;;;23.61;35.90
3796;BME280;1913;50.660;7.834;2023-07-22T12:10:12;153893.47;;;23.68;34.25
3796;BME280;1913;50.660;7.834;2023-07-22T12:12:42;153895.97;;;23.69;33.67
3796;BME280;1913;50.660;7.834;2023-07-22T12:18:00;153703.41;;;22.91;35.31
3796;BME280;1913;50.660;7.834;2023-07-22T12:20:27;153598.34;;;22.49;35.10
3796;BME280;1913;50.660;7.834;2023-07-22T12:22:54;153692.00;;;22.87;34.99
3796;BME280;1913;50.660;7.834;2023-07-22T12:25:20;153808.59;;;23.34;34.35
3796;BME280;1913;50.660;7.834;2023-07-22T12:27:45;153897.28;;;23.70;34.62
3796;BME280;1913;50.660;7.834;2023-07-22T12:30:11;154042.97;;;24.28;34.06
3796;BME280;1913;50.660;7.834;2023-07-22T12:32:37;154034.09;;;24.25;32.18
3796;BME280;1913;50.660;7.834;2023-07-22T12:35:03;154077.25;;;24.42;33.20
3796;BME280;1913;50.660;7.834;2023-07-22T12:37:29;153973.28;;;24.00;33.70
3796;BME280;1913;50.660;7.834;2023-07-22T12:39:56;154022.72;;;24.20;32.64
3796;BME280;1913;50.660;7.834;2023-07-22T12:42:21;154081.03;;;24.44;32.33
3796;BME280;1913;50.660;7.834;2023-07-22T12:44:46;153923.91;;;23.80;32.17
3796;BME280;1913;50.660;7.834;2023-07-22T12:47:12;153865.56;;;23.57;33.37
3796;BME280;1913;50.660;7.834;2023-07-22T12:49:37;153814.88;;;23.36;33.35
3796;BME280;1913;50.660;7.834;2023-07-22T12:52:03;153859.22;;;23.54;34.67
3796;BME280;1913;50.660;7.834;2023-07-22T12:54:32;153838.97;;;23.46;34.47
3796;BME280;1913;50.660;7.834;2023-07-22T12:56:58;153722.47;;;22.99;35.23
3796;BME280;1913;50.660;7.834;2023-07-22T12:59:23;153861.78;;;23.55;35.48
3796;BME280;1913;50.660;7.834;2023-07-22T13:01:48;153925.16;;;23.81;35.11
3796;BME280;1913;50.660;7.834;2023-07-22T13:04:14;153887.06;;;23.65;34.28
3796;BME280;1913;50.660;7.834;2023-07-22T13:06:40;153928.94;;;23.82;34.55
3796;BME280;1913;50.660;7.834;2023-07-22T13:09:05;153780.69;;;23.23;35.08
3796;BME280;1913;50.660;7.834;2023-07-22T13:11:31;153780.69;;;23.23;36.15
3796;BME280;1913;50.660;7.834;2023-07-22T13:13:56;153836.44;;;23.45;35.26
3796;BME280;1913;50.660;7.834;2023-07-22T13:16:21;153927.66;;;23.82;35.38
3796;BME280;1913;50.660;7.834;2023-07-22T13:18:47;154045.50;;;24.29;33.68
3796;BME280;1913;50.660;7.834;2023-07-22T13:21:12;154098.75;;;24.51;33.48
3796;BME280;1913;50.660;7.834;2023-07-22T13:23:38;154101.34;;;24.52;33.42